sensor_id;sensor_type;location;lat;lon;timestamp;temperature;humidity
33837;DHT22;20140;49.356;8.812;2024-03-02T00:00:21;4.00;99.90
33837;DHT22;20140;49.356;8.812;2024-03-02T00:02:50;4.10;99.90
33837;DHT22;20140;49.356;8.812;2024-03-02T00:05:18;4.00;99.90
33837;DHT22;20140;49.356;8.812;2024-03-02T00:07:52;4.00;99.90
33837;DHT22;20140;49.356;8.812;2024-03-02T00:10:22;3.90;99.90
33837;DHT22;20140;49.356;8.812;2024-03-02T00:12:55;3.90;99.90
33837;DHT22;20140;49.356;8.812;2024-03-02T00:15:31;3.80;99.90
33837;DHT22;20140;49.356;8.812;2024-03-02T00:17:59;3.60;99.90
33837;DHT22;20140;49.356;8.812;2024-03-02T00:20:25;3.60;99.90
33837;DHT22;20140;49.356;8.812;2024-03-02T00:23:04;3.70;99.90
33837;DHT22;20140;49.356;8.812;2024-03-02T00:25:50;3.70;99.90
33837;DHT22;20140;49.356;8.812;2024-03-02T00:28:25;3.80;99.90
33837;DHT22;20140;49.356;8.812;2024-03-02T00:31:07;3.90;99.90
33837;DHT22;20140;49.356;8.812;2024-03-02T00:33:35;3.90;99.90
33837;DHT22;20140;49.356;8.812;2024-03-02T00:36:05;3.90;99.90
33837;DHT22;20140;49.356;8.812;2024-03-02T00:38:32;3.90;99.90
33837;DHT22;20140;49.356;8.812;2024-03-02T00:41:00;3.70;99.90
33837;DHT22;20140;49.356;8.812;2024-03-02T00:43:38;3.60;99.90
33837;DHT22;20140;49.356;8.812;2024-03-02T00:46:06;3.70;99.90
33837;DHT22;20140;49.356;8.812;2024-03-02T00:48:32;3.70;99.90
33837;DHT22;20140;49.356;8.812;2024-03-02T00:51:01;3.60;99.90
33837;DHT22;20140;49.356;8.812;2024-03-02T00:53:29;3.60;99.90
33837;DHT22;20140;49.356;8.812;2024-03-02T00:55:56;3.50;99.90
33837;DHT22;20140;49.356;8.812;2024-03-02T00:58:22;3.60;99.90
33837;DHT22;20140;49.356;8.812;2024-03-02T01:00:47;3.60;99.90
33837;DHT22;20140;49.356;8.812;2024-03-02T01:03:13;3.50;99.90
33837;DHT22;20140;49.356;8.812;2024-03-02T01:05:42;3.50;99.90
33837;DHT22;20140;49.356;8.812;2024-03-02T01:08:08;3.50;99.90
33837;DHT22;20140;49.356;8.812;2024-03-02T01:10:34;3.50;99.90
33837;DHT22;20140;49.356;8.812;2024-03-02T01:12:59;3.50;99.90
33837;DHT22;20140;49.356;8.812;2024-03-02T01:15:25;3.30;99.90
33837;DHT22;20140;49.356;8.812;2024-03-02T01:17:50;3.30;99.90
33837;DHT22;20140;49.356;8.812;2024-03-02T01:20:16;3.30;99.90
33837;DHT22;20140;49.356;8.812;2024-03-02T01:22:41;3.40;99.90
33837;DHT22;20140;49.356;8.812;2024-03-02T01:25:08;3.30;99.90
33837;DHT22;20140;49.356;8.812;2024-03-02T01:27:34;3.40;99.90
33837;DHT22;20140;49.356;8.812;2024-03-02T01:29:59;3.50;99.90
33837;DHT22;20140;49.356;8.812;2024-03-02T01:32:25;3.40;99.90
33837;DHT22;20140;49.356;8.812;2024-03-02T01:34:50;3.40;99.90
33837;DHT22;20140;49.356;8.812;2024-03-02T01:37:16;3.50;99.90
33837;DHT22;20140;49.356;8.812;2024-03-02T01:39:42;3.50;99.90
33837;DHT22;20140;49.356;8.812;2024-03-02T01:42:07;3.40;99.90
33837;DHT22;20140;49.356;8.812;2024-03-02T01:44:32;3.40;99.90
33837;DHT22;20140;49.356;8.812;2024-03-02T01:46:58;3.30;99.90
33837;DHT22;20140;49.356;8.812;2024-03-02T01:49:24;3.10;99.90
33837;DHT22;20140;49.356;8.812;2024-03-02T01:51:49;3.10;99.90
33837;DHT22;20140;49.356;8.812;2024-03-02T01:54:15;3.10;99.90
33837;DHT22;20140;49.356;8.812;2024-03-02T01:56:40;3.20;99.90
33837;DHT22;20140;49.356;8.812;2024-03-02T01:59:06;3.20;99.90
33837;DHT22;20140;49.356;8.812;2024-03-02T02:01:32;3.20;99.90
33837;DHT22;20140;49.356;8.812;2024-03-02T02:03:57;3.10;99.90
33837;DHT22;20140;49.356;8.812;2024-03-02T02:06:23;3.10;99.90
33837;DHT22;20140;49.356;8.812;2024-03-02T02:08:48;3.20;99.90
33837;DHT22;20140;49.356;8.812;2024-03-02T02:11:17;3.20;99.90
33837;DHT22;20140;49.356;8.812;2024-03-02T02:13:42;3.20;99.90
33837;DHT22;20140;49.356;8.812;2024-03-02T02:16:08;3.10;99.90
33837;DHT22;20140;49.356;8.812;2024-03-02T02:18:34;3.10;99.90
33837;DHT22;20140;49.356;8.812;2024-03-02T02:21:01;3.10;99.90
33837;DHT22;20140;49.356;8.812;2024-03-02T02:23:27;3.20;99.90
33837;DHT22;20140;49.356;8.812;2024-03-02T02:25:52;3.10;99.90
33837;DHT22;20140;49.356;8.812;2024-03-02T02:28:18;2.90;99.90
33837;DHT22;20140;49.356;8.812;2024-03-02T02:30:43;2.80;99.90
33837;DHT22;20140;49.356;8.812;2024-03-02T02:33:09;2.70;99.90
33837;DHT22;20140;49.356;8.812;2024-03-02T02:35:34;2.80;99.90
33837;DHT22;20140;49.356;8.812;2024-03-02T02:38:00;2.60;99.90
33837;DHT22;20140;49.356;8.812;2024-03-02T02:40:26;2.70;99.90
33837;DHT22;20140;49.356;8.812;2024-03-02T02:42:52;2.70;99.90
33837;DHT22;20140;49.356;8.812;2024-03-02T02:45:17;2.70;99.90
33837;DHT22;20140;49.356;8.812;2024-03-02T02:47:44;2.70;99.90
33837;DHT22;20140;49.356;8.812;2024-03-02T02:50:11;2.80;99.90
33837;DHT22;20140;49.356;8.812;2024-03-02T02:52:38;2.70;99.90
33837;DHT22;20140;49.356;8.812;2024-03-02T02:55:06;2.70;99.90
33837;DHT22;20140;49.356;8.812;2024-03-02T02:57:33;2.70;99.90
33837;DHT22;20140;49.356;8.812;2024-03-02T03:00:05;2.60;99.90
33837;DHT22;20140;49.356;8.812;2024-03-02T03:02:38;2.50;99.90
33837;DHT22;20140;49.356;8.812;2024-03-02T03:05:05;2.40;99.90
33837;DHT22;20140;49.356;8.812;2024-03-02T03:07:31;2.50;99.90
33837;DHT22;20140;49.356;8.812;2024-03-02T04:03:28;2.40;99.90
33837;DHT22;20140;49.356;8.812;2024-03-02T04:05:54;2.10;99.90
33837;DHT22;20140;49.356;8.812;2024-03-02T04:08:19;2.10;99.90
33837;DHT22;20140;49.356;8.812;2024-03-02T04:10:44;1.90;99.90
33837;DHT22;20140;49.356;8.812;2024-03-02T04:13:10;1.90;99.90
33837;DHT22;20140;49.356;8.812;2024-03-02T04:15:35;1.90;99.90
33837;DHT22;20140;49.356;8.812;2024-03-02T04:18:01;1.90;99.90
33837;DHT22;20140;49.356;8.812;2024-03-02T04:20:27;1.80;99.90
33837;DHT22;20140;49.356;8.812;2024-03-02T04:22:52;1.70;99.90
33837;DHT22;20140;49.356;8.812;2024-03-02T04:25:18;1.70;99.90
33837;DHT22;20140;49.356;8.812;2024-03-02T04:27:43;1.80;99.90
33837;DHT22;20140;49.356;8.812;2024-03-02T04:30:09;1.80;99.90
33837;DHT22;20140;49.356;8.812;2024-03-02T04:32:34;1.90;99.90
33837;DHT22;20140;49.356;8.812;2024-03-02T04:35:01;1.80;99.90
33837;DHT22;20140;49.356;8.812;2024-03-02T04:37:27;1.70;99.90
33837;DHT22;20140;49.356;8.812;2024-03-02T04:39:52;1.70;99.90
33837;DHT22;20140;49.356;8.812;2024-03-02T04:42:17;1.70;99.90
33837;DHT22;20140;49.356;8.812;2024-03-02T04:44:43;1.70;99.90
33837;DHT22;20140;49.356;8.812;2024-03-02T04:47:08;1.60;99.90
33837;DHT22;20140;49.356;8.812;2024-03-02T04:49:34;1.70;99.90
33837;DHT22;20140;49.356;8.812;2024-03-02T04:51:59;1.90;99.90
33837;DHT22;20140;49.356;8.812;2024-03-02T04:54:25;1.80;99.90
33837;DHT22;20140;49.356;8.812;2024-03-02T04:56:51;1.80;99.90
33837;DHT22;20140;49.356;8.812;2024-03-02T04:59:17;1.80;99.90
33837;DHT22;20140;49.356;8.812;2024-03-02T05:01:44;1.70;99.90
33837;DHT22;20140;49.356;8.812;2024-03-02T05:04:09;1.80;99.90
33837;DHT22;20140;49.356;8.812;2024-03-02T05:06:37;1.70;99.90
33837;DHT22;20140;49.356;8.812;2024-03-02T05:09:03;1.70;99.90
33837;DHT22;20140;49.356;8.812;2024-03-02T05:11:29;1.80;99.90
33837;DHT22;20140;49.356;8.812;2024-03-02T05:14:10;1.80;99.90
33837;DHT22;20140;49.356;8.812;2024-03-02T05:16:36;2.00;99.90
33837;DHT22;20140;49.356;8.812;2024-03-02T05:19:04;2.00;99.90
33837;DHT22;20140;49.356;8.812;2024-03-02T05:21:32;2.00;99.90
33837;DHT22;20140;49.356;8.812;2024-03-02T05:23:57;2.00;99.90
33837;DHT22;20140;49.356;8.812;2024-03-02T05:26:25;2.00;99.90
33837;DHT22;20140;49.356;8.812;2024-03-02T05:28:51;2.00;99.90
33837;DHT22;20140;49.356;8.812;2024-03-02T05:31:16;2.10;99.90
33837;DHT22;20140;49.356;8.812;2024-03-02T05:33:42;2.00;99.90
33837;DHT22;20140;49.356;8.812;2024-03-02T05:36:08;1.90;99.90
33837;DHT22;20140;49.356;8.812;2024-03-02T05:38:37;1.90;99.90
33837;DHT22;20140;49.356;8.812;2024-03-02T05:41:03;2.00;99.90
33837;DHT22;20140;49.356;8.812;2024-03-02T05:43:28;2.00;99.90
33837;DHT22;20140;49.356;8.812;2024-03-02T05:45:54;1.90;99.90
33837;DHT22;20140;49.356;8.812;2024-03-02T05:48:20;1.90;99.90
33837;DHT22;20140;49.356;8.812;2024-03-02T05:50:45;1.80;99.90
33837;DHT22;20140;49.356;8.812;2024-03-02T05:53:11;1.70;99.90
33837;DHT22;20140;49.356;8.812;2024-03-02T05:55:36;1.80;99.90
33837;DHT22;20140;49.356;8.812;2024-03-02T05:58:02;1.70;99.90
33837;DHT22;20140;49.356;8.812;2024-03-02T06:00:46;1.80;99.90
33837;DHT22;20140;49.356;8.812;2024-03-02T06:03:11;1.80;99.90
33837;DHT22;20140;49.356;8.812;2024-03-02T06:05:37;1.70;99.90
33837;DHT22;20140;49.356;8.812;2024-03-02T06:08:02;1.70;99.90
33837;DHT22;20140;49.356;8.812;2024-03-02T06:10:28;1.80;99.90
33837;DHT22;20140;49.356;8.812;2024-03-02T06:12:54;1.90;99.90
33837;DHT22;20140;49.356;8.812;2024-03-02T06:15:19;2.00;99.90
33837;DHT22;20140;49.356;8.812;2024-03-02T06:17:45;1.90;99.90
33837;DHT22;20140;49.356;8.812;2024-03-02T06:20:10;1.70;99.90
33837;DHT22;20140;49.356;8.812;2024-03-02T06:22:36;1.60;99.90
33837;DHT22;20140;49.356;8.812;2024-03-02T06:25:01;1.60;99.90
33837;DHT22;20140;49.356;8.812;2024-03-02T06:27:30;1.60;99.90
33837;DHT22;20140;49.356;8.812;2024-03-02T06:29:55;1.70;99.90
33837;DHT22;20140;49.356;8.812;2024-03-02T06:32:21;1.60;99.90
33837;DHT22;20140;49.356;8.812;2024-03-02T06:34:48;1.60;99.90
33837;DHT22;20140;49.356;8.812;2024-03-02T06:37:13;1.60;99.90
33837;DHT22;20140;49.356;8.812;2024-03-02T06:39:40;1.60;99.90
33837;DHT22;20140;49.356;8.812;2024-03-02T06:42:05;1.70;99.90
33837;DHT22;20140;49.356;8.812;2024-03-02T06:44:31;1.60;99.90
33837;DHT22;20140;49.356;8.812;2024-03-02T06:46:56;1.80;99.90
33837;DHT22;20140;49.356;8.812;2024-03-02T06:49:22;1.90;99.90
33837;DHT22;20140;49.356;8.812;2024-03-02T06:51:47;1.90;99.90
33837;DHT22;20140;49.356;8.812;2024-03-02T06:54:13;2.10;99.90
33837;DHT22;20140;49.356;8.812;2024-03-02T06:56:38;2.00;99.90
33837;DHT22;20140;49.356;8.812;2024-03-02T06:59:04;1.90;99.90
33837;DHT22;20140;49.356;8.812;2024-03-02T07:01:30;1.90;99.90
33837;DHT22;20140;49.356;8.812;2024-03-02T07:03:55;2.00;99.90
33837;DHT22;20140;49.356;8.812;2024-03-02T07:06:20;1.90;99.90
33837;DHT22;20140;49.356;8.812;2024-03-02T07:08:46;2.00;99.90
33837;DHT22;20140;49.356;8.812;2024-03-02T07:11:11;2.00;99.90
33837;DHT22;20140;49.356;8.812;2024-03-02T07:13:37;1.90;99.90
33837;DHT22;20140;49.356;8.812;2024-03-02T07:16:03;1.80;99.90
33837;DHT22;20140;49.356;8.812;2024-03-02T07:18:29;1.80;99.90
33837;DHT22;20140;49.356;8.812;2024-03-02T07:20:56;1.90;99.90
33837;DHT22;20140;49.356;8.812;2024-03-02T07:23:23;1.90;99.90
33837;DHT22;20140;49.356;8.812;2024-03-02T07:25:52;2.00;99.90
33837;DHT22;20140;49.356;8.812;2024-03-02T07:28:20;1.90;99.90
33837;DHT22;20140;49.356;8.812;2024-03-02T07:30:46;2.00;99.90
33837;DHT22;20140;49.356;8.812;2024-03-02T07:33:11;2.10;99.90
33837;DHT22;20140;49.356;8.812;2024-03-02T07:35:36;2.00;99.90
33837;DHT22;20140;49.356;8.812;2024-03-02T07:38:03;2.00;99.90
33837;DHT22;20140;49.356;8.812;2024-03-02T07:40:28;2.10;99.90
33837;DHT22;20140;49.356;8.812;2024-03-02T07:42:54;2.30;99.90
33837;DHT22;20140;49.356;8.812;2024-03-02T07:45:20;2.50;99.90
33837;DHT22;20140;49.356;8.812;2024-03-02T07:47:46;2.40;99.90
33837;DHT22;20140;49.356;8.812;2024-03-02T07:50:12;2.20;99.90
33837;DHT22;20140;49.356;8.812;2024-03-02T07:52:37;2.20;99.90
33837;DHT22;20140;49.356;8.812;2024-03-02T07:55:03;2.20;99.90
33837;DHT22;20140;49.356;8.812;2024-03-02T07:57:28;2.30;99.90
33837;DHT22;20140;49.356;8.812;2024-03-02T07:59:54;2.40;99.90
33837;DHT22;20140;49.356;8.812;2024-03-02T08:02:20;2.40;99.90
33837;DHT22;20140;49.356;8.812;2024-03-02T08:04:46;2.30;99.90
33837;DHT22;20140;49.356;8.812;2024-03-02T08:07:11;2.30;99.90
33837;DHT22;20140;49.356;8.812;2024-03-02T08:09:37;2.40;99.90
33837;DHT22;20140;49.356;8.812;2024-03-02T08:12:02;2.40;99.90
33837;DHT22;20140;49.356;8.812;2024-03-02T08:14:28;2.40;99.90
33837;DHT22;20140;49.356;8.812;2024-03-02T08:16:53;2.50;99.90
33837;DHT22;20140;49.356;8.812;2024-03-02T08:19:19;2.70;99.90
33837;DHT22;20140;49.356;8.812;2024-03-02T08:21:45;2.90;99.90
33837;DHT22;20140;49.356;8.812;2024-03-02T08:24:10;3.00;99.90
33837;DHT22;20140;49.356;8.812;2024-03-02T08:26:36;3.10;99.90
33837;DHT22;20140;49.356;8.812;2024-03-02T08:29:02;3.30;99.90
33837;DHT22;20140;49.356;8.812;2024-03-02T08:31:29;3.50;99.90
33837;DHT22;20140;49.356;8.812;2024-03-02T08:33:54;3.70;99.90
33837;DHT22;20140;49.356;8.812;2024-03-02T08:36:20;3.90;99.90
33837;DHT22;20140;49.356;8.812;2024-03-02T08:38:46;4.10;99.90
33837;DHT22;20140;49.356;8.812;2024-03-02T08:41:11;4.30;99.90
33837;DHT22;20140;49.356;8.812;2024-03-02T08:43:40;4.40;99.90
33837;DHT22;20140;49.356;8.812;2024-03-02T08:46:06;4.60;99.90
33837;DHT22;20140;49.356;8.812;2024-03-02T08:48:32;4.80;99.90
33837;DHT22;20140;49.356;8.812;2024-03-02T08:50:57;4.90;99.90
33837;DHT22;20140;49.356;8.812;2024-03-02T08:53:23;4.90;99.90
33837;DHT22;20140;49.356;8.812;2024-03-02T08:55:48;5.00;99.90
33837;DHT22;20140;49.356;8.812;2024-03-02T08:58:14;5.30;99.90
33837;DHT22;20140;49.356;8.812;2024-03-02T09:00:40;5.20;99.90
33837;DHT22;20140;49.356;8.812;2024-03-02T09:03:06;5.30;99.90
33837;DHT22;20140;49.356;8.812;2024-03-02T09:05:31;5.60;99.90
33837;DHT22;20140;49.356;8.812;2024-03-02T09:07:57;5.90;99.90
33837;DHT22;20140;49.356;8.812;2024-03-02T09:10:22;6.00;99.90
33837;DHT22;20140;49.356;8.812;2024-03-02T09:12:48;6.10;99.90
33837;DHT22;20140;49.356;8.812;2024-03-02T09:15:13;6.30;99.90
33837;DHT22;20140;49.356;8.812;2024-03-02T09:17:39;6.50;99.90
33837;DHT22;20140;49.356;8.812;2024-03-02T09:20:05;6.80;99.90
33837;DHT22;20140;49.356;8.812;2024-03-02T09:22:31;7.20;99.90
33837;DHT22;20140;49.356;8.812;2024-03-02T09:24:57;7.30;99.90
33837;DHT22;20140;49.356;8.812;2024-03-02T09:27:23;7.40;99.90
33837;DHT22;20140;49.356;8.812;2024-03-02T09:29:49;7.50;99.90
33837;DHT22;20140;49.356;8.812;2024-03-02T09:32:14;7.70;99.90
33837;DHT22;20140;49.356;8.812;2024-03-02T09:34:41;7.90;99.90
33837;DHT22;20140;49.356;8.812;2024-03-02T09:37:06;8.10;99.90
33837;DHT22;20140;49.356;8.812;2024-03-02T09:39:32;8.10;99.90
33837;DHT22;20140;49.356;8.812;2024-03-02T09:41:58;8.20;99.90
33837;DHT22;20140;49.356;8.812;2024-03-02T09:44:25;8.30;99.90
33837;DHT22;20140;49.356;8.812;2024-03-02T09:46:51;8.30;99.90
33837;DHT22;20140;49.356;8.812;2024-03-02T09:49:17;8.30;99.90
33837;DHT22;20140;49.356;8.812;2024-03-02T09:51:47;8.50;99.90
33837;DHT22;20140;49.356;8.812;2024-03-02T09:54:13;8.80;99.90
33837;DHT22;20140;49.356;8.812;2024-03-02T09:56:39;8.80;99.90
33837;DHT22;20140;49.356;8.812;2024-03-02T09:59:05;8.90;99.90
33837;DHT22;20140;49.356;8.812;2024-03-02T10:01:30;8.80;99.90
33837;DHT22;20140;49.356;8.812;2024-03-02T10:03:59;9.00;99.90
33837;DHT22;20140;49.356;8.812;2024-03-02T10:06:26;9.30;99.90
33837;DHT22;20140;49.356;8.812;2024-03-02T10:08:53;9.50;99.90
33837;DHT22;20140;49.356;8.812;2024-03-02T10:11:33;9.40;99.90
33837;DHT22;20140;49.356;8.812;2024-03-02T10:14:12;9.50;99.90
33837;DHT22;20140;49.356;8.812;2024-03-02T10:16:42;9.60;99.90
33837;DHT22;20140;49.356;8.812;2024-03-02T10:19:18;9.60;99.90
33837;DHT22;20140;49.356;8.812;2024-03-02T10:21:48;9.80;99.90
33837;DHT22;20140;49.356;8.812;2024-03-02T10:24:18;9.90;99.90
33837;DHT22;20140;49.356;8.812;2024-03-02T10:26:44;10.00;99.90
33837;DHT22;20140;49.356;8.812;2024-03-02T10:29:10;10.20;99.90
33837;DHT22;20140;49.356;8.812;2024-03-02T10:31:46;10.10;99.90
33837;DHT22;20140;49.356;8.812;2024-03-02T10:34:13;10.30;99.90
33837;DHT22;20140;49.356;8.812;2024-03-02T10:36:41;10.40;99.90
33837;DHT22;20140;49.356;8.812;2024-03-02T10:39:08;10.80;99.90
33837;DHT22;20140;49.356;8.812;2024-03-02T10:41:37;10.90;99.90
33837;DHT22;20140;49.356;8.812;2024-03-02T10:44:07;11.00;99.90
33837;DHT22;20140;49.356;8.812;2024-03-02T10:46:35;11.00;99.90
33837;DHT22;20140;49.356;8.812;2024-03-02T10:49:03;10.90;99.90
33837;DHT22;20140;49.356;8.812;2024-03-02T10:51:31;10.90;99.90
33837;DHT22;20140;49.356;8.812;2024-03-02T10:54:02;11.10;99.90
33837;DHT22;20140;49.356;8.812;2024-03-02T10:56:39;11.20;99.90
33837;DHT22;20140;49.356;8.812;2024-03-02T10:59:19;11.20;99.90
33837;DHT22;20140;49.356;8.812;2024-03-02T11:01:48;11.40;99.90
33837;DHT22;20140;49.356;8.812;2024-03-02T11:04:16;11.50;99.90
33837;DHT22;20140;49.356;8.812;2024-03-02T11:06:49;11.70;99.90
33837;DHT22;20140;49.356;8.812;2024-03-02T11:09:18;11.90;99.90
33837;DHT22;20140;49.356;8.812;2024-03-02T11:11:45;12.20;99.90
33837;DHT22;20140;49.356;8.812;2024-03-02T11:14:16;12.10;99.90
33837;DHT22;20140;49.356;8.812;2024-03-02T11:16:42;12.10;99.90
33837;DHT22;20140;49.356;8.812;2024-03-02T11:19:13;12.00;99.90
33837;DHT22;20140;49.356;8.812;2024-03-02T11:21:39;12.00;99.90
33837;DHT22;20140;49.356;8.812;2024-03-02T11:24:28;12.10;99.90
33837;DHT22;20140;49.356;8.812;2024-03-02T11:26:58;12.10;99.90
33837;DHT22;20140;49.356;8.812;2024-03-02T11:32:05;13.00;99.90
33837;DHT22;20140;49.356;8.812;2024-03-02T11:34:33;12.80;99.90
33837;DHT22;20140;49.356;8.812;2024-03-02T11:37:00;12.70;99.90
33837;DHT22;20140;49.356;8.812;2024-03-02T11:39:27;12.70;99.90
33837;DHT22;20140;49.356;8.812;2024-03-02T11:41:52;12.90;99.90
33837;DHT22;20140;49.356;8.812;2024-03-02T11:44:18;12.90;99.90
33837;DHT22;20140;49.356;8.812;2024-03-02T11:46:58;13.10;99.90
33837;DHT22;20140;49.356;8.812;2024-03-02T11:49:41;13.30;99.90
33837;DHT22;20140;49.356;8.812;2024-03-02T11:52:08;13.40;99.90
33837;DHT22;20140;49.356;8.812;2024-03-02T11:54:36;13.10;99.90
33837;DHT22;20140;49.356;8.812;2024-03-02T11:57:05;13.30;99.90
33837;DHT22;20140;49.356;8.812;2024-03-02T11:59:31;13.30;99.90
33837;DHT22;20140;49.356;8.812;2024-03-02T12:02:00;13.50;99.90
33837;DHT22;20140;49.356;8.812;2024-03-02T12:04:26;13.60;99.90
33837;DHT22;20140;49.356;8.812;2024-03-02T12:07:10;13.70;99.90
33837;DHT22;20140;49.356;8.812;2024-03-02T12:09:36;13.90;99.90
33837;DHT22;20140;49.356;8.812;2024-03-02T12:14:32;14.10;99.90
33837;DHT22;20140;49.356;8.812;2024-03-02T12:16:57;14.30;99.90
33837;DHT22;20140;49.356;8.812;2024-03-02T12:19:25;14.30;99.90
33837;DHT22;20140;49.356;8.812;2024-03-02T12:21:51;14.30;99.90
33837;DHT22;20140;49.356;8.812;2024-03-02T12:24:16;14.40;99.90
33837;DHT22;20140;49.356;8.812;2024-03-02T12:26:42;14.60;99.90
33837;DHT22;20140;49.356;8.812;2024-03-02T12:29:08;15.00;99.90
33837;DHT22;20140;49.356;8.812;2024-03-02T12:31:34;15.10;99.90
33837;DHT22;20140;49.356;8.812;2024-03-02T12:34:01;15.20;99.90
33837;DHT22;20140;49.356;8.812;2024-03-02T12:36:27;15.30;99.90
33837;DHT22;20140;49.356;8.812;2024-03-02T12:38:53;15.50;99.90
33837;DHT22;20140;49.356;8.812;2024-03-02T12:41:20;15.60;99.90
33837;DHT22;20140;49.356;8.812;2024-03-02T12:43:45;16.00;99.90
33837;DHT22;20140;49.356;8.812;2024-03-02T12:46:11;16.40;99.90
33837;DHT22;20140;49.356;8.812;2024-03-02T12:48:37;16.60;99.90
33837;DHT22;20140;49.356;8.812;2024-03-02T12:51:04;17.50;99.90
33837;DHT22;20140;49.356;8.812;2024-03-02T12:53:30;17.20;99.90
33837;DHT22;20140;49.356;8.812;2024-03-02T12:55:56;17.60;99.90
33837;DHT22;20140;49.356;8.812;2024-03-02T12:58:22;19.30;98.90
33837;DHT22;20140;49.356;8.812;2024-03-02T13:00:48;19.10;97.60
33837;DHT22;20140;49.356;8.812;2024-03-02T13:03:14;18.70;99.90
33837;DHT22;20140;49.356;8.812;2024-03-02T13:05:40;18.60;97.90
33837;DHT22;20140;49.356;8.812;2024-03-02T13:08:06;20.50;98.00
33837;DHT22;20140;49.356;8.812;2024-03-02T13:10:32;20.00;94.80
33837;DHT22;20140;49.356;8.812;2024-03-02T13:12:58;18.70;97.70
33837;DHT22;20140;49.356;8.812;2024-03-02T13:15:26;19.00;97.80
33837;DHT22;20140;49.356;8.812;2024-03-02T13:17:52;19.00;97.50
33837;DHT22;20140;49.356;8.812;2024-03-02T13:20:17;19.00;95.20
33837;DHT22;20140;49.356;8.812;2024-03-02T13:22:44;19.60;97.10
33837;DHT22;20140;49.356;8.812;2024-03-02T13:25:09;19.30;96.90
33837;DHT22;20140;49.356;8.812;2024-03-02T13:27:38;19.60;94.00
33837;DHT22;20140;49.356;8.812;2024-03-02T13:30:04;19.60;95.70
33837;DHT22;20140;49.356;8.812;2024-03-02T13:32:31;19.80;92.90
33837;DHT22;20140;49.356;8.812;2024-03-02T13:34:59;19.60;93.40
33837;DHT22;20140;49.356;8.812;2024-03-02T13:37:25;20.20;95.10
33837;DHT22;20140;49.356;8.812;2024-03-02T13:39:51;19.40;93.40
33837;DHT22;20140;49.356;8.812;2024-03-02T13:42:16;19.90;92.60
33837;DHT22;20140;49.356;8.812;2024-03-02T13:44:45;18.80;93.10
33837;DHT22;20140;49.356;8.812;2024-03-02T13:47:16;19.00;94.90
33837;DHT22;20140;49.356;8.812;2024-03-02T13:49:41;19.40;94.80
33837;DHT22;20140;49.356;8.812;2024-03-02T13:52:11;19.30;93.80
33837;DHT22;20140;49.356;8.812;2024-03-02T13:54:41;19.20;93.60
33837;DHT22;20140;49.356;8.812;2024-03-02T13:57:08;19.50;94.60
33837;DHT22;20140;49.356;8.812;2024-03-02T13:59:34;20.70;91.30
33837;DHT22;20140;49.356;8.812;2024-03-02T14:02:03;19.80;89.90
33837;DHT22;20140;49.356;8.812;2024-03-02T14:04:31;18.30;93.20
33837;DHT22;20140;49.356;8.812;2024-03-02T14:06:57;20.40;93.50
33837;DHT22;20140;49.356;8.812;2024-03-02T14:09:22;21.30;91.00
33837;DHT22;20140;49.356;8.812;2024-03-02T14:11:50;21.30;87.60
33837;DHT22;20140;49.356;8.812;2024-03-02T14:14:16;21.10;90.20
33837;DHT22;20140;49.356;8.812;2024-03-02T14:16:41;20.30;88.80
33837;DHT22;20140;49.356;8.812;2024-03-02T14:19:07;20.10;89.50
33837;DHT22;20140;49.356;8.812;2024-03-02T14:21:32;20.10;90.60
33837;DHT22;20140;49.356;8.812;2024-03-02T14:23:59;20.30;90.10
33837;DHT22;20140;49.356;8.812;2024-03-02T14:26:24;20.60;90.00
33837;DHT22;20140;49.356;8.812;2024-03-02T14:28:50;21.80;84.80
33837;DHT22;20140;49.356;8.812;2024-03-02T14:31:16;20.60;86.60
33837;DHT22;20140;49.356;8.812;2024-03-02T14:33:41;20.90;87.10
33837;DHT22;20140;49.356;8.812;2024-03-02T14:36:07;20.60;89.90
33837;DHT22;20140;49.356;8.812;2024-03-02T14:38:33;20.20;89.70
33837;DHT22;20140;49.356;8.812;2024-03-02T14:40:59;20.20;90.00
33837;DHT22;20140;49.356;8.812;2024-03-02T14:43:24;19.70;90.20
33837;DHT22;20140;49.356;8.812;2024-03-02T14:45:50;20.40;89.10
33837;DHT22;20140;49.356;8.812;2024-03-02T14:48:15;20.40;87.70
33837;DHT22;20140;49.356;8.812;2024-03-02T14:50:42;20.30;90.10
33837;DHT22;20140;49.356;8.812;2024-03-02T14:53:07;20.40;90.00
33837;DHT22;20140;49.356;8.812;2024-03-02T14:55:33;20.60;90.40
33837;DHT22;20140;49.356;8.812;2024-03-02T14:57:59;21.00;87.90
33837;DHT22;20140;49.356;8.812;2024-03-02T15:00:25;20.50;87.00
33837;DHT22;20140;49.356;8.812;2024-03-02T15:02:51;20.30;90.20
33837;DHT22;20140;49.356;8.812;2024-03-02T15:05:16;20.70;87.60
33837;DHT22;20140;49.356;8.812;2024-03-02T15:07:43;20.10;87.10
33837;DHT22;20140;49.356;8.812;2024-03-02T15:10:08;21.00;82.70
33837;DHT22;20140;49.356;8.812;2024-03-02T15:12:34;21.20;84.50
33837;DHT22;20140;49.356;8.812;2024-03-02T15:15:00;21.60;83.30
33837;DHT22;20140;49.356;8.812;2024-03-02T15:17:25;22.30;81.60
33837;DHT22;20140;49.356;8.812;2024-03-02T15:19:51;22.80;79.50
33837;DHT22;20140;49.356;8.812;2024-03-02T15:22:17;22.60;77.70
33837;DHT22;20140;49.356;8.812;2024-03-02T15:24:42;21.80;79.20
33837;DHT22;20140;49.356;8.812;2024-03-02T15:27:08;21.30;81.10
33837;DHT22;20140;49.356;8.812;2024-03-02T15:29:34;21.10;80.60
33837;DHT22;20140;49.356;8.812;2024-03-02T15:32:01;20.30;81.50
33837;DHT22;20140;49.356;8.812;2024-03-02T15:34:28;19.60;86.00
33837;DHT22;20140;49.356;8.812;2024-03-02T15:36:54;19.60;85.60
33837;DHT22;20140;49.356;8.812;2024-03-02T15:39:20;19.10;88.70
33837;DHT22;20140;49.356;8.812;2024-03-02T15:41:45;18.60;90.30
33837;DHT22;20140;49.356;8.812;2024-03-02T15:44:11;18.30;91.30
33837;DHT22;20140;49.356;8.812;2024-03-02T15:46:37;18.00;92.00
33837;DHT22;20140;49.356;8.812;2024-03-02T15:49:06;18.00;91.50
33837;DHT22;20140;49.356;8.812;2024-03-02T15:51:33;17.80;91.60
33837;DHT22;20140;49.356;8.812;2024-03-02T15:53:59;17.60;92.50
33837;DHT22;20140;49.356;8.812;2024-03-02T15:56:25;17.60;92.80
33837;DHT22;20140;49.356;8.812;2024-03-02T15:58:50;17.40;93.50
33837;DHT22;20140;49.356;8.812;2024-03-02T16:01:16;17.30;93.50
33837;DHT22;20140;49.356;8.812;2024-03-02T16:03:41;17.10;93.60
33837;DHT22;20140;49.356;8.812;2024-03-02T16:06:07;16.90;94.80
33837;DHT22;20140;49.356;8.812;2024-03-02T16:08:32;16.90;94.70
33837;DHT22;20140;49.356;8.812;2024-03-02T16:10:58;16.80;95.10
33837;DHT22;20140;49.356;8.812;2024-03-02T16:13:24;16.70;95.50
33837;DHT22;20140;49.356;8.812;2024-03-02T16:15:49;16.50;95.50
33837;DHT22;20140;49.356;8.812;2024-03-02T16:18:15;16.30;97.60
33837;DHT22;20140;49.356;8.812;2024-03-02T16:20:40;16.00;98.60
33837;DHT22;20140;49.356;8.812;2024-03-02T16:23:06;15.80;99.00
33837;DHT22;20140;49.356;8.812;2024-03-02T16:25:33;15.70;99.90
33837;DHT22;20140;49.356;8.812;2024-03-02T16:27:58;15.60;99.90
33837;DHT22;20140;49.356;8.812;2024-03-02T16:32:52;15.40;99.90
33837;DHT22;20140;49.356;8.812;2024-03-02T16:35:18;14.80;99.90
33837;DHT22;20140;49.356;8.812;2024-03-02T16:37:43;14.50;99.90